sensor_id;sensor_type;location;lat;lon;timestamp;P1;durP1;ratioP1;P2;durP2;ratioP2
45366;SDS011;31100;55.848;37.636;2022-09-02T00:00:48;1.20;;;0.50;;
45366;SDS011;31100;55.848;37.636;2022-09-02T00:03:16;0.77;;;0.40;;
45366;SDS011;31100;55.848;37.636;2022-09-02T00:05:42;2.58;;;0.40;;
45366;SDS011;31100;55.848;37.636;2022-09-02T00:08:08;1.30;;;0.40;;
45366;SDS011;31100;55.848;37.636;2022-09-02T00:10:36;4.03;;;0.70;;
45366;SDS011;31100;55.848;37.636;2022-09-02T00:13:04;2.10;;;0.40;;
45366;SDS011;31100;55.848;37.636;2022-09-02T00:15:31;2.72;;;0.75;;
45366;SDS011;31100;55.848;37.636;2022-09-02T00:17:58;1.30;;;0.60;;
45366;SDS011;31100;55.848;37.636;2022-09-02T00:20:25;1.00;;;0.40;;
45366;SDS011;31100;55.848;37.636;2022-09-02T00:22:52;1.10;;;0.45;;
45366;SDS011;31100;55.848;37.636;2022-09-02T00:25:17;0.80;;;0.50;;
45366;SDS011;31100;55.848;37.636;2022-09-02T00:27:43;2.53;;;0.77;;
45366;SDS011;31100;55.848;37.636;2022-09-02T00:30:09;3.45;;;0.52;;
45366;SDS011;31100;55.848;37.636;2022-09-02T00:32:35;1.48;;;0.40;;
45366;SDS011;31100;55.848;37.636;2022-09-02T00:35:00;1.45;;;0.50;;
45366;SDS011;31100;55.848;37.636;2022-09-02T00:37:29;2.42;;;0.50;;
45366;SDS011;31100;55.848;37.636;2022-09-02T00:39:54;1.85;;;0.50;;
45366;SDS011;31100;55.848;37.636;2022-09-02T00:42:21;0.60;;;0.38;;
45366;SDS011;31100;55.848;37.636;2022-09-02T00:44:48;1.27;;;0.50;;
45366;SDS011;31100;55.848;37.636;2022-09-02T00:47:13;2.22;;;0.50;;
45366;SDS011;31100;55.848;37.636;2022-09-02T00:49:40;0.93;;;0.60;;
45366;SDS011;31100;55.848;37.636;2022-09-02T00:52:23;3.90;;;0.55;;
45366;SDS011;31100;55.848;37.636;2022-09-02T00:57:48;0.95;;;0.60;;
45366;SDS011;31100;55.848;37.636;2022-09-02T01:00:20;7.90;;;1.02;;
45366;SDS011;31100;55.848;37.636;2022-09-02T01:02:58;1.10;;;0.50;;
45366;SDS011;31100;55.848;37.636;2022-09-02T01:05:28;1.15;;;0.50;;
45366;SDS011;31100;55.848;37.636;2022-09-02T01:07:57;1.00;;;0.50;;
45366;SDS011;31100;55.848;37.636;2022-09-02T01:10:24;0.90;;;0.40;;
45366;SDS011;31100;55.848;37.636;2022-09-02T01:12:56;2.10;;;0.40;;
45366;SDS011;31100;55.848;37.636;2022-09-02T01:15:23;1.92;;;0.52;;
45366;SDS011;31100;55.848;37.636;2022-09-02T01:17:49;1.55;;;0.40;;
45366;SDS011;31100;55.848;37.636;2022-09-02T01:20:17;0.85;;;0.52;;
45366;SDS011;31100;55.848;37.636;2022-09-02T01:22:45;0.77;;;0.40;;
45366;SDS011;31100;55.848;37.636;2022-09-02T01:25:15;1.02;;;0.40;;
45366;SDS011;31100;55.848;37.636;2022-09-02T01:27:43;1.05;;;0.47;;
45366;SDS011;31100;55.848;37.636;2022-09-02T01:30:11;1.92;;;0.30;;
45366;SDS011;31100;55.848;37.636;2022-09-02T01:32:41;0.50;;;0.30;;
45366;SDS011;31100;55.848;37.636;2022-09-02T01:35:07;1.88;;;0.60;;
45366;SDS011;31100;55.848;37.636;2022-09-02T01:37:33;0.50;;;0.40;;
45366;SDS011;31100;55.848;37.636;2022-09-02T01:39:59;0.65;;;0.30;;
45366;SDS011;31100;55.848;37.636;2022-09-02T01:42:25;1.17;;;0.40;;
45366;SDS011;31100;55.848;37.636;2022-09-02T01:44:51;1.13;;;0.38;;
45366;SDS011;31100;55.848;37.636;2022-09-02T01:47:18;0.47;;;0.30;;
45366;SDS011;31100;55.848;37.636;2022-09-02T01:49:46;2.08;;;0.40;;
45366;SDS011;31100;55.848;37.636;2022-09-02T01:52:13;0.60;;;0.30;;
45366;SDS011;31100;55.848;37.636;2022-09-02T01:54:39;0.63;;;0.30;;
45366;SDS011;31100;55.848;37.636;2022-09-02T01:57:05;1.67;;;0.47;;
45366;SDS011;31100;55.848;37.636;2022-09-02T01:59:31;0.45;;;0.40;;
45366;SDS011;31100;55.848;37.636;2022-09-02T02:01:57;3.63;;;0.40;;
45366;SDS011;31100;55.848;37.636;2022-09-02T02:04:22;0.40;;;0.30;;
45366;SDS011;31100;55.848;37.636;2022-09-02T02:06:49;0.70;;;0.30;;
45366;SDS011;31100;55.848;37.636;2022-09-02T02:09:15;1.42;;;0.38;;
45366;SDS011;31100;55.848;37.636;2022-09-02T02:11:41;0.45;;;0.38;;
45366;SDS011;31100;55.848;37.636;2022-09-02T02:14:07;1.30;;;0.40;;
45366;SDS011;31100;55.848;37.636;2022-09-02T02:16:33;0.55;;;0.40;;
45366;SDS011;31100;55.848;37.636;2022-09-02T02:18:59;0.80;;;0.30;;
45366;SDS011;31100;55.848;37.636;2022-09-02T02:21:25;0.60;;;0.40;;
45366;SDS011;31100;55.848;37.636;2022-09-02T02:23:51;1.02;;;0.43;;
45366;SDS011;31100;55.848;37.636;2022-09-02T02:26:17;1.13;;;0.30;;
45366;SDS011;31100;55.848;37.636;2022-09-02T02:28:43;1.00;;;0.30;;
45366;SDS011;31100;55.848;37.636;2022-09-02T02:31:09;2.60;;;0.50;;
45366;SDS011;31100;55.848;37.636;2022-09-02T02:33:35;1.45;;;0.50;;
45366;SDS011;31100;55.848;37.636;2022-09-02T02:36:03;2.45;;;0.50;;
45366;SDS011;31100;55.848;37.636;2022-09-02T02:38:30;0.50;;;0.30;;
45366;SDS011;31100;55.848;37.636;2022-09-02T02:40:57;0.75;;;0.40;;
45366;SDS011;31100;55.848;37.636;2022-09-02T02:43:23;1.42;;;0.40;;
45366;SDS011;31100;55.848;37.636;2022-09-02T02:45:52;0.95;;;0.40;;
45366;SDS011;31100;55.848;37.636;2022-09-02T02:48:27;1.35;;;0.52;;
45366;SDS011;31100;55.848;37.636;2022-09-02T02:50:53;0.85;;;0.40;;
45366;SDS011;31100;55.848;37.636;2022-09-02T02:53:19;1.02;;;0.40;;
45366;SDS011;31100;55.848;37.636;2022-09-02T02:55:45;2.00;;;0.57;;
45366;SDS011;31100;55.848;37.636;2022-09-02T02:58:10;0.60;;;0.30;;
45366;SDS011;31100;55.848;37.636;2022-09-02T03:00:36;0.68;;;0.40;;
45366;SDS011;31100;55.848;37.636;2022-09-02T03:03:07;0.60;;;0.40;;
45366;SDS011;31100;55.848;37.636;2022-09-02T03:05:34;1.63;;;0.40;;
45366;SDS011;31100;55.848;37.636;2022-09-02T03:08:03;3.15;;;0.70;;
45366;SDS011;31100;55.848;37.636;2022-09-02T03:10:33;2.08;;;0.40;;
45366;SDS011;31100;55.848;37.636;2022-09-02T03:12:59;1.77;;;0.40;;
45366;SDS011;31100;55.848;37.636;2022-09-02T03:15:25;0.77;;;0.40;;
45366;SDS011;31100;55.848;37.636;2022-09-02T03:17:52;1.67;;;0.50;;
45366;SDS011;31100;55.848;37.636;2022-09-02T03:20:18;1.92;;;0.60;;
45366;SDS011;31100;55.848;37.636;2022-09-02T03:22:44;2.17;;;0.50;;
45366;SDS011;31100;55.848;37.636;2022-09-02T03:25:12;0.90;;;0.45;;
45366;SDS011;31100;55.848;37.636;2022-09-02T03:27:39;0.47;;;0.30;;
45366;SDS011;31100;55.848;37.636;2022-09-02T03:30:06;0.75;;;0.40;;
45366;SDS011;31100;55.848;37.636;2022-09-02T03:32:34;1.00;;;0.50;;
45366;SDS011;31100;55.848;37.636;2022-09-02T03:35:00;0.88;;;0.40;;
45366;SDS011;31100;55.848;37.636;2022-09-02T03:37:28;2.45;;;0.40;;
45366;SDS011;31100;55.848;37.636;2022-09-02T03:39:53;1.35;;;0.38;;
45366;SDS011;31100;55.848;37.636;2022-09-02T03:42:19;1.50;;;0.40;;
45366;SDS011;31100;55.848;37.636;2022-09-02T03:44:45;2.25;;;0.65;;
45366;SDS011;31100;55.848;37.636;2022-09-02T03:47:11;5.15;;;1.20;;
45366;SDS011;31100;55.848;37.636;2022-09-02T03:49:39;0.60;;;0.40;;
45366;SDS011;31100;55.848;37.636;2022-09-02T03:52:05;1.35;;;0.47;;
45366;SDS011;31100;55.848;37.636;2022-09-02T03:54:30;1.63;;;0.52;;
45366;SDS011;31100;55.848;37.636;2022-09-02T03:56:56;1.38;;;0.50;;
45366;SDS011;31100;55.848;37.636;2022-09-02T03:59:22;1.90;;;0.60;;
45366;SDS011;31100;55.848;37.636;2022-09-02T04:01:49;1.42;;;0.75;;
45366;SDS011;31100;55.848;37.636;2022-09-02T04:04:15;3.00;;;0.60;;
45366;SDS011;31100;55.848;37.636;2022-09-02T04:06:43;1.60;;;0.60;;
45366;SDS011;31100;55.848;37.636;2022-09-02T04:09:08;1.95;;;0.60;;
45366;SDS011;31100;55.848;37.636;2022-09-02T04:11:34;1.80;;;0.50;;
45366;SDS011;31100;55.848;37.636;2022-09-02T04:14:01;1.20;;;0.50;;
45366;SDS011;31100;55.848;37.636;2022-09-02T04:16:27;1.20;;;0.50;;
45366;SDS011;31100;55.848;37.636;2022-09-02T04:18:56;2.50;;;0.40;;
45366;SDS011;31100;55.848;37.636;2022-09-02T04:21:24;1.05;;;0.68;;
45366;SDS011;31100;55.848;37.636;2022-09-02T04:23:50;0.90;;;0.50;;
45366;SDS011;31100;55.848;37.636;2022-09-02T04:26:17;1.42;;;0.50;;
45366;SDS011;31100;55.848;37.636;2022-09-02T04:28:43;1.25;;;0.60;;
45366;SDS011;31100;55.848;37.636;2022-09-02T04:31:11;1.23;;;0.45;;
45366;SDS011;31100;55.848;37.636;2022-09-02T04:33:38;1.20;;;0.50;;
45366;SDS011;31100;55.848;37.636;2022-09-02T04:36:08;0.85;;;0.40;;
45366;SDS011;31100;55.848;37.636;2022-09-02T04:38:35;0.98;;;0.40;;
45366;SDS011;31100;55.848;37.636;2022-09-02T04:41:11;2.15;;;0.50;;
45366;SDS011;31100;55.848;37.636;2022-09-02T04:43:39;1.60;;;0.50;;
45366;SDS011;31100;55.848;37.636;2022-09-02T04:46:06;1.38;;;0.60;;
45366;SDS011;31100;55.848;37.636;2022-09-02T04:48:33;1.55;;;0.60;;
45366;SDS011;31100;55.848;37.636;2022-09-02T04:51:07;1.27;;;0.50;;
45366;SDS011;31100;55.848;37.636;2022-09-02T04:53:35;3.58;;;0.63;;
45366;SDS011;31100;55.848;37.636;2022-09-02T04:56:05;1.45;;;0.45;;
45366;SDS011;31100;55.848;37.636;2022-09-02T04:58:32;2.63;;;0.60;;
45366;SDS011;31100;55.848;37.636;2022-09-02T05:01:03;2.45;;;0.50;;
45366;SDS011;31100;55.848;37.636;2022-09-02T05:03:33;3.60;;;0.70;;
45366;SDS011;31100;55.848;37.636;2022-09-02T05:05:59;1.30;;;0.70;;
45366;SDS011;31100;55.848;37.636;2022-09-02T05:08:26;0.90;;;0.50;;
45366;SDS011;31100;55.848;37.636;2022-09-02T05:10:52;1.25;;;0.50;;
45366;SDS011;31100;55.848;37.636;2022-09-02T05:13:18;3.22;;;0.60;;
45366;SDS011;31100;55.848;37.636;2022-09-02T05:15:44;5.00;;;0.95;;
45366;SDS011;31100;55.848;37.636;2022-09-02T05:18:10;3.83;;;0.98;;
45366;SDS011;31100;55.848;37.636;2022-09-02T05:20:37;1.60;;;0.70;;
45366;SDS011;31100;55.848;37.636;2022-09-02T05:23:04;1.73;;;0.55;;
45366;SDS011;31100;55.848;37.636;2022-09-02T05:25:30;1.23;;;0.52;;
45366;SDS011;31100;55.848;37.636;2022-09-02T05:27:56;1.77;;;0.50;;
45366;SDS011;31100;55.848;37.636;2022-09-02T05:30:22;2.67;;;0.75;;
45366;SDS011;31100;55.848;37.636;2022-09-02T05:32:48;3.72;;;0.60;;
45366;SDS011;31100;55.848;37.636;2022-09-02T05:35:14;1.15;;;0.50;;
45366;SDS011;31100;55.848;37.636;2022-09-02T05:37:43;2.45;;;0.50;;
45366;SDS011;31100;55.848;37.636;2022-09-02T05:40:09;2.08;;;0.70;;
45366;SDS011;31100;55.848;37.636;2022-09-02T05:42:37;1.80;;;0.80;;
45366;SDS011;31100;55.848;37.636;2022-09-02T05:45:08;1.17;;;0.40;;
45366;SDS011;31100;55.848;37.636;2022-09-02T05:47:35;1.73;;;0.60;;
45366;SDS011;31100;55.848;37.636;2022-09-02T05:50:02;1.58;;;0.50;;
45366;SDS011;31100;55.848;37.636;2022-09-02T05:52:29;1.88;;;0.57;;
45366;SDS011;31100;55.848;37.636;2022-09-02T05:54:55;1.13;;;0.40;;
45366;SDS011;31100;55.848;37.636;2022-09-02T05:57:21;2.92;;;0.60;;
45366;SDS011;31100;55.848;37.636;2022-09-02T05:59:47;2.45;;;0.55;;
45366;SDS011;31100;55.848;37.636;2022-09-02T06:02:20;3.08;;;0.80;;
45366;SDS011;31100;55.848;37.636;2022-09-02T06:04:47;1.05;;;0.57;;
45366;SDS011;31100;55.848;37.636;2022-09-02T06:07:14;3.60;;;0.70;;
45366;SDS011;31100;55.848;37.636;2022-09-02T06:09:40;5.53;;;0.70;;
45366;SDS011;31100;55.848;37.636;2022-09-02T06:12:09;2.38;;;0.40;;
45366;SDS011;31100;55.848;37.636;2022-09-02T06:14:38;1.38;;;0.70;;
45366;SDS011;31100;55.848;37.636;2022-09-02T06:17:05;1.42;;;0.60;;
45366;SDS011;31100;55.848;37.636;2022-09-02T06:19:32;2.05;;;0.60;;
45366;SDS011;31100;55.848;37.636;2022-09-02T06:21:59;2.53;;;0.73;;
45366;SDS011;31100;55.848;37.636;2022-09-02T06:24:26;1.80;;;0.70;;
45366;SDS011;31100;55.848;37.636;2022-09-02T06:26:55;1.60;;;0.50;;
45366;SDS011;31100;55.848;37.636;2022-09-02T06:29:22;1.40;;;0.50;;
45366;SDS011;31100;55.848;37.636;2022-09-02T06:31:49;1.25;;;0.60;;
45366;SDS011;31100;55.848;37.636;2022-09-02T06:34:16;2.42;;;0.57;;
45366;SDS011;31100;55.848;37.636;2022-09-02T06:36:46;1.77;;;0.60;;
45366;SDS011;31100;55.848;37.636;2022-09-02T06:39:14;2.60;;;0.50;;
45366;SDS011;31100;55.848;37.636;2022-09-02T06:41:41;1.92;;;0.60;;
45366;SDS011;31100;55.848;37.636;2022-09-02T06:44:08;3.35;;;0.70;;
45366;SDS011;31100;55.848;37.636;2022-09-02T06:46:36;1.80;;;0.40;;
45366;SDS011;31100;55.848;37.636;2022-09-02T06:49:05;3.15;;;0.73;;
45366;SDS011;31100;55.848;37.636;2022-09-02T06:51:32;1.27;;;0.60;;
45366;SDS011;31100;55.848;37.636;2022-09-02T06:54:00;2.67;;;0.52;;
45366;SDS011;31100;55.848;37.636;2022-09-02T06:56:27;1.52;;;0.50;;
45366;SDS011;31100;55.848;37.636;2022-09-02T06:58:53;2.10;;;0.70;;
45366;SDS011;31100;55.848;37.636;2022-09-02T07:01:23;1.95;;;0.47;;
45366;SDS011;31100;55.848;37.636;2022-09-02T07:03:50;1.17;;;0.60;;
45366;SDS011;31100;55.848;37.636;2022-09-02T07:06:35;1.75;;;0.50;;
45366;SDS011;31100;55.848;37.636;2022-09-02T07:09:05;3.03;;;1.55;;
45366;SDS011;31100;55.848;37.636;2022-09-02T07:11:32;1.65;;;0.50;;
45366;SDS011;31100;55.848;37.636;2022-09-02T07:13:58;5.38;;;0.60;;
45366;SDS011;31100;55.848;37.636;2022-09-02T07:16:35;1.50;;;0.70;;
45366;SDS011;31100;55.848;37.636;2022-09-02T07:19:04;3.22;;;0.60;;
45366;SDS011;31100;55.848;37.636;2022-09-02T07:21:31;1.33;;;0.40;;
45366;SDS011;31100;55.848;37.636;2022-09-02T07:24:00;2.63;;;0.47;;
45366;SDS011;31100;55.848;37.636;2022-09-02T07:26:27;3.17;;;0.60;;
45366;SDS011;31100;55.848;37.636;2022-09-02T07:28:53;1.77;;;0.60;;
45366;SDS011;31100;55.848;37.636;2022-09-02T07:31:19;2.20;;;0.50;;
45366;SDS011;31100;55.848;37.636;2022-09-02T07:33:45;2.13;;;0.50;;
45366;SDS011;31100;55.848;37.636;2022-09-02T07:36:12;2.72;;;0.60;;
45366;SDS011;31100;55.848;37.636;2022-09-02T07:38:40;2.13;;;0.55;;
45366;SDS011;31100;55.848;37.636;2022-09-02T07:41:07;3.22;;;0.70;;
45366;SDS011;31100;55.848;37.636;2022-09-02T07:43:34;1.60;;;0.60;;
45366;SDS011;31100;55.848;37.636;2022-09-02T07:46:01;1.48;;;0.70;;
45366;SDS011;31100;55.848;37.636;2022-09-02T07:48:27;3.90;;;0.80;;
45366;SDS011;31100;55.848;37.636;2022-09-02T07:50:54;4.05;;;1.25;;
45366;SDS011;31100;55.848;37.636;2022-09-02T07:53:22;5.18;;;1.63;;
45366;SDS011;31100;55.848;37.636;2022-09-02T07:55:48;6.18;;;1.88;;
45366;SDS011;31100;55.848;37.636;2022-09-02T07:58:14;2.92;;;0.60;;
45366;SDS011;31100;55.848;37.636;2022-09-02T08:00:41;1.35;;;0.55;;
45366;SDS011;31100;55.848;37.636;2022-09-02T08:03:08;2.65;;;0.50;;
45366;SDS011;31100;55.848;37.636;2022-09-02T08:05:35;3.05;;;0.80;;
45366;SDS011;31100;55.848;37.636;2022-09-02T08:08:02;0.98;;;0.50;;
45366;SDS011;31100;55.848;37.636;2022-09-02T08:10:28;2.22;;;0.70;;
45366;SDS011;31100;55.848;37.636;2022-09-02T08:12:55;4.00;;;0.95;;
45366;SDS011;31100;55.848;37.636;2022-09-02T08:15:23;3.47;;;0.80;;
45366;SDS011;31100;55.848;37.636;2022-09-02T08:17:50;2.08;;;0.50;;
45366;SDS011;31100;55.848;37.636;2022-09-02T08:20:16;2.50;;;0.63;;
45366;SDS011;31100;55.848;37.636;2022-09-02T08:22:42;2.35;;;1.00;;
45366;SDS011;31100;55.848;37.636;2022-09-02T08:25:08;1.60;;;0.68;;
45366;SDS011;31100;55.848;37.636;2022-09-02T08:27:35;3.95;;;0.70;;
45366;SDS011;31100;55.848;37.636;2022-09-02T08:30:01;2.90;;;0.82;;
45366;SDS011;31100;55.848;37.636;2022-09-02T08:32:29;2.13;;;0.90;;
45366;SDS011;31100;55.848;37.636;2022-09-02T08:34:57;2.75;;;0.73;;
45366;SDS011;31100;55.848;37.636;2022-09-02T08:37:30;3.40;;;0.80;;
45366;SDS011;31100;55.848;37.636;2022-09-02T08:39:56;3.70;;;0.90;;
45366;SDS011;31100;55.848;37.636;2022-09-02T08:42:28;3.25;;;0.80;;
45366;SDS011;31100;55.848;37.636;2022-09-02T08:44:59;2.50;;;0.98;;
45366;SDS011;31100;55.848;37.636;2022-09-02T08:47:32;2.67;;;0.60;;
45366;SDS011;31100;55.848;37.636;2022-09-02T08:50:02;2.75;;;0.70;;
45366;SDS011;31100;55.848;37.636;2022-09-02T08:52:32;3.17;;;1.10;;
45366;SDS011;31100;55.848;37.636;2022-09-02T08:55:04;3.35;;;0.75;;
45366;SDS011;31100;55.848;37.636;2022-09-02T08:57:32;2.97;;;0.90;;
45366;SDS011;31100;55.848;37.636;2022-09-02T08:59:59;3.10;;;0.80;;
45366;SDS011;31100;55.848;37.636;2022-09-02T09:02:28;2.85;;;0.88;;
45366;SDS011;31100;55.848;37.636;2022-09-02T09:15:58;3.72;;;1.00;;
45366;SDS011;31100;55.848;37.636;2022-09-02T09:18:32;2.45;;;1.30;;
45366;SDS011;31100;55.848;37.636;2022-09-02T09:21:05;2.28;;;0.60;;
45366;SDS011;31100;55.848;37.636;2022-09-02T09:23:33;1.58;;;0.52;;
45366;SDS011;31100;55.848;37.636;2022-09-02T09:26:05;4.18;;;1.25;;
45366;SDS011;31100;55.848;37.636;2022-09-02T09:28:35;4.57;;;0.50;;
45366;SDS011;31100;55.848;37.636;2022-09-02T09:31:05;2.33;;;0.77;;
45366;SDS011;31100;55.848;37.636;2022-09-02T09:33:34;2.20;;;0.75;;
45366;SDS011;31100;55.848;37.636;2022-09-02T09:36:00;13.82;;;1.52;;
45366;SDS011;31100;55.848;37.636;2022-09-02T09:38:31;1.13;;;0.60;;
45366;SDS011;31100;55.848;37.636;2022-09-02T09:41:15;2.88;;;0.73;;
45366;SDS011;31100;55.848;37.636;2022-09-02T09:43:43;3.35;;;0.70;;
45366;SDS011;31100;55.848;37.636;2022-09-02T09:46:24;1.60;;;0.45;;
45366;SDS011;31100;55.848;37.636;2022-09-02T09:48:52;1.00;;;0.38;;
45366;SDS011;31100;55.848;37.636;2022-09-02T09:51:18;2.97;;;0.68;;
45366;SDS011;31100;55.848;37.636;2022-09-02T09:53:44;1.88;;;0.60;;
45366;SDS011;31100;55.848;37.636;2022-09-02T09:58:48;3.40;;;1.05;;
45366;SDS011;31100;55.848;37.636;2022-09-02T10:01:17;2.72;;;0.70;;
45366;SDS011;31100;55.848;37.636;2022-09-02T10:07:40;1.70;;;0.50;;
45366;SDS011;31100;55.848;37.636;2022-09-02T10:12:50;2.80;;;0.80;;
45366;SDS011;31100;55.848;37.636;2022-09-02T10:15:19;3.70;;;1.23;;
45366;SDS011;31100;55.848;37.636;2022-09-02T10:31:49;3.33;;;0.60;;
45366;SDS011;31100;55.848;37.636;2022-09-02T10:39:23;3.33;;;0.88;;
45366;SDS011;31100;55.848;37.636;2022-09-02T10:41:54;4.20;;;0.77;;
45366;SDS011;31100;55.848;37.636;2022-09-02T10:58:07;1.10;;;0.52;;
45366;SDS011;31100;55.848;37.636;2022-09-02T11:00:37;2.00;;;0.60;;
45366;SDS011;31100;55.848;37.636;2022-09-02T11:03:09;2.63;;;0.70;;
45366;SDS011;31100;55.848;37.636;2022-09-02T11:13:39;2.40;;;0.73;;
45366;SDS011;31100;55.848;37.636;2022-09-02T11:16:19;1.80;;;0.60;;
45366;SDS011;31100;55.848;37.636;2022-09-02T11:18:58;2.80;;;0.73;;
45366;SDS011;31100;55.848;37.636;2022-09-02T11:24:14;2.80;;;0.80;;
45366;SDS011;31100;55.848;37.636;2022-09-02T11:35:02;2.40;;;0.70;;
45366;SDS011;31100;55.848;37.636;2022-09-02T11:40:23;1.85;;;0.80;;
45366;SDS011;31100;55.848;37.636;2022-09-02T11:53:44;2.10;;;0.43;;
45366;SDS011;31100;55.848;37.636;2022-09-02T12:02:29;2.72;;;0.40;;
45366;SDS011;31100;55.848;37.636;2022-09-02T12:08:03;1.92;;;0.70;;
45366;SDS011;31100;55.848;37.636;2022-09-02T12:13:10;4.57;;;0.70;;
45366;SDS011;31100;55.848;37.636;2022-09-02T12:15:37;4.28;;;1.00;;
45366;SDS011;31100;55.848;37.636;2022-09-02T12:23:04;4.95;;;1.02;;
45366;SDS011;31100;55.848;37.636;2022-09-02T12:36:55;1.95;;;0.60;;
45366;SDS011;31100;55.848;37.636;2022-09-02T12:45:23;5.70;;;1.20;;
45366;SDS011;31100;55.848;37.636;2022-09-02T12:48:08;4.75;;;1.52;;
45366;SDS011;31100;55.848;37.636;2022-09-02T12:55:36;2.22;;;0.60;;
45366;SDS011;31100;55.848;37.636;2022-09-02T12:58:07;2.58;;;0.98;;
45366;SDS011;31100;55.848;37.636;2022-09-02T13:00:44;2.88;;;1.13;;
45366;SDS011;31100;55.848;37.636;2022-09-02T13:11:42;3.15;;;0.80;;
45366;SDS011;31100;55.848;37.636;2022-09-02T13:14:55;2.13;;;0.98;;
45366;SDS011;31100;55.848;37.636;2022-09-02T13:33:39;2.08;;;0.45;;
45366;SDS011;31100;55.848;37.636;2022-09-02T13:36:05;2.10;;;0.70;;
45366;SDS011;31100;55.848;37.636;2022-09-02T13:38:32;1.92;;;0.60;;
45366;SDS011;31100;55.848;37.636;2022-09-02T13:40:57;2.10;;;0.60;;
45366;SDS011;31100;55.848;37.636;2022-09-02T13:43:24;2.10;;;0.80;;
45366;SDS011;31100;55.848;37.636;2022-09-02T13:45:52;1.80;;;0.70;;
45366;SDS011;31100;55.848;37.636;2022-09-02T13:48:26;1.85;;;0.80;;
45366;SDS011;31100;55.848;37.636;2022-09-02T13:50:58;1.88;;;0.90;;
45366;SDS011;31100;55.848;37.636;2022-09-02T13:53:28;2.20;;;0.60;;
45366;SDS011;31100;55.848;37.636;2022-09-02T13:55:56;1.63;;;0.50;;
45366;SDS011;31100;55.848;37.636;2022-09-02T13:58:34;2.13;;;0.80;;
45366;SDS011;31100;55.848;37.636;2022-09-02T14:01:18;3.88;;;0.90;;
45366;SDS011;31100;55.848;37.636;2022-09-02T14:03:53;4.13;;;2.00;;
45366;SDS011;31100;55.848;37.636;2022-09-02T14:06:39;3.20;;;1.15;;
45366;SDS011;31100;55.848;37.636;2022-09-02T14:09:10;2.08;;;0.57;;
45366;SDS011;31100;55.848;37.636;2022-09-02T14:11:46;2.60;;;0.75;;
45366;SDS011;31100;55.848;37.636;2022-09-02T14:14:13;3.50;;;1.05;;
45366;SDS011;31100;55.848;37.636;2022-09-02T14:16:39;6.10;;;0.70;;
45366;SDS011;31100;55.848;37.636;2022-09-02T14:19:22;5.72;;;0.90;;
45366;SDS011;31100;55.848;37.636;2022-09-02T14:21:51;5.07;;;1.25;;
45366;SDS011;31100;55.848;37.636;2022-09-02T14:24:25;4.03;;;0.90;;
45366;SDS011;31100;55.848;37.636;2022-09-02T14:26:53;1.65;;;0.70;;
45366;SDS011;31100;55.848;37.636;2022-09-02T14:29:22;2.20;;;0.70;;
45366;SDS011;31100;55.848;37.636;2022-09-02T14:32:33;1.92;;;0.70;;
45366;SDS011;31100;55.848;37.636;2022-09-02T14:34:43;2.28;;;0.70;;
45366;SDS011;31100;55.848;37.636;2022-09-02T14:37:14;1.67;;;0.68;;
45366;SDS011;31100;55.848;37.636;2022-09-02T14:42:17;1.20;;;0.50;;
45366;SDS011;31100;55.848;37.636;2022-09-02T14:44:45;1.70;;;0.88;;
45366;SDS011;31100;55.848;37.636;2022-09-02T14:47:14;1.63;;;0.60;;
45366;SDS011;31100;55.848;37.636;2022-09-02T14:49:51;3.25;;;0.80;;
45366;SDS011;31100;55.848;37.636;2022-09-02T14:52:20;1.13;;;0.63;;
45366;SDS011;31100;55.848;37.636;2022-09-02T14:54:51;2.75;;;0.70;;
45366;SDS011;31100;55.848;37.636;2022-09-02T14:57:31;1.73;;;0.70;;
45366;SDS011;31100;55.848;37.636;2022-09-02T15:00:04;2.25;;;0.70;;
45366;SDS011;31100;55.848;37.636;2022-09-02T15:02:39;2.47;;;0.70;;
45366;SDS011;31100;55.848;37.636;2022-09-02T15:05:08;3.67;;;1.48;;
45366;SDS011;31100;55.848;37.636;2022-09-02T15:07:38;2.47;;;0.70;;
45366;SDS011;31100;55.848;37.636;2022-09-02T15:10:06;3.42;;;0.88;;
45366;SDS011;31100;55.848;37.636;2022-09-02T15:12:35;2.58;;;0.80;;
45366;SDS011;31100;55.848;37.636;2022-09-02T15:15:06;3.70;;;0.80;;
45366;SDS011;31100;55.848;37.636;2022-09-02T15:17:31;4.25;;;1.20;;
45366;SDS011;31100;55.848;37.636;2022-09-02T15:19:57;2.15;;;0.80;;
45366;SDS011;31100;55.848;37.636;2022-09-02T15:22:23;2.55;;;0.88;;
45366;SDS011;31100;55.848;37.636;2022-09-02T15:24:48;2.55;;;0.73;;
45366;SDS011;31100;55.848;37.636;2022-09-02T15:27:15;1.75;;;0.80;;
45366;SDS011;31100;55.848;37.636;2022-09-02T15:29:41;2.92;;;0.82;;
45366;SDS011;31100;55.848;37.636;2022-09-02T15:32:06;1.88;;;0.60;;
45366;SDS011;31100;55.848;37.636;2022-09-02T15:34:32;3.45;;;1.00;;
45366;SDS011;31100;55.848;37.636;2022-09-02T15:37:01;3.55;;;1.10;;
45366;SDS011;31100;55.848;37.636;2022-09-02T15:39:27;2.95;;;0.88;;
45366;SDS011;31100;55.848;37.636;2022-09-02T15:41:53;2.03;;;1.02;;
45366;SDS011;31100;55.848;37.636;2022-09-02T15:44:22;2.67;;;1.05;;
45366;SDS011;31100;55.848;37.636;2022-09-02T15:46:54;4.53;;;1.00;;
45366;SDS011;31100;55.848;37.636;2022-09-02T15:49:20;2.78;;;0.68;;
45366;SDS011;31100;55.848;37.636;2022-09-02T15:51:47;4.15;;;0.80;;
45366;SDS011;31100;55.848;37.636;2022-09-02T15:54:14;3.60;;;1.10;;
45366;SDS011;31100;55.848;37.636;2022-09-02T15:56:42;1.65;;;0.80;;
45366;SDS011;31100;55.848;37.636;2022-09-02T15:59:12;2.83;;;1.10;;
45366;SDS011;31100;55.848;37.636;2022-09-02T16:01:45;3.72;;;1.30;;
45366;SDS011;31100;55.848;37.636;2022-09-02T16:04:12;3.53;;;1.65;;
45366;SDS011;31100;55.848;37.636;2022-09-02T16:06:39;3.25;;;0.90;;
45366;SDS011;31100;55.848;37.636;2022-09-02T16:09:14;2.85;;;0.98;;
45366;SDS011;31100;55.848;37.636;2022-09-02T16:11:45;2.55;;;1.00;;
45366;SDS011;31100;55.848;37.636;2022-09-02T16:14:12;2.78;;;1.17;;
45366;SDS011;31100;55.848;37.636;2022-09-02T16:16:39;2.30;;;0.93;;
45366;SDS011;31100;55.848;37.636;2022-09-02T16:19:06;3.00;;;1.33;;
45366;SDS011;31100;55.848;37.636;2022-09-02T16:21:32;2.88;;;1.10;;
45366;SDS011;31100;55.848;37.636;2022-09-02T16:23:59;3.60;;;1.33;;
45366;SDS011;31100;55.848;37.636;2022-09-02T16:26:31;5.05;;;1.73;;
45366;SDS011;31100;55.848;37.636;2022-09-02T16:28:59;3.13;;;1.20;;
45366;SDS011;31100;55.848;37.636;2022-09-02T16:31:26;2.75;;;1.10;;
45366;SDS011;31100;55.848;37.636;2022-09-02T16:34:06;2.80;;;1.15;;
45366;SDS011;31100;55.848;37.636;2022-09-02T16:36:34;7.63;;;1.65;;
45366;SDS011;31100;55.848;37.636;2022-09-02T16:39:02;4.30;;;1.20;;
45366;SDS011;31100;55.848;37.636;2022-09-02T16:41:29;5.40;;;1.48;;
45366;SDS011;31100;55.848;37.636;2022-09-02T16:44:00;4.93;;;1.83;;
45366;SDS011;31100;55.848;37.636;2022-09-02T16:46:27;3.78;;;1.90;;
45366;SDS011;31100;55.848;37.636;2022-09-02T16:48:53;3.95;;;1.60;;
45366;SDS011;31100;55.848;37.636;2022-09-02T16:51:22;4.55;;;1.75;;
45366;SDS011;31100;55.848;37.636;2022-09-02T16:53:56;4.47;;;2.03;;
45366;SDS011;31100;55.848;37.636;2022-09-02T16:56:23;3.55;;;1.55;;
45366;SDS011;31100;55.848;37.636;2022-09-02T16:58:50;5.43;;;1.90;;
45366;SDS011;31100;55.848;37.636;2022-09-02T17:01:17;4.55;;;1.70;;
45366;SDS011;31100;55.848;37.636;2022-09-02T17:03:43;3.72;;;1.35;;
45366;SDS011;31100;55.848;37.636;2022-09-02T17:06:10;4.20;;;1.60;;
45366;SDS011;31100;55.848;37.636;2022-09-02T17:08:36;5.57;;;1.42;;
45366;SDS011;31100;55.848;37.636;2022-09-02T17:14:04;7.15;;;3.10;;
45366;SDS011;31100;55.848;37.636;2022-09-02T17:16:32;4.85;;;1.65;;
45366;SDS011;31100;55.848;37.636;2022-09-02T17:19:20;8.18;;;2.00;;